Latest Weather Observations for Hay Point

IDQ60801

Issued at 1:42 am EST Wednesday 19 February 2020 (issued every 10 minutes, with the page automatically refreshed every 10 minutes)

About weather observations | Map of weather stations | Latest weather observations for QLD | Other Formats
Station Details ID: 033317 Name: HAY POINT Lat: -21.29 Lon: 149.30 Height: 7.0 m
Data from the previous 72 hours. | See also: Recent months for locations in Queensland
Date/Time
EST
Temp
°C
App
Temp
°C
Dew
Point
°C
Rel
Hum
%
Delta-T
°C
Wind Press
QNH
hPa
Press
MSL
hPa
Rain since
9am
mm
Dir  Spd
km/h
Gust
km/h
Spd
kts
Gust
kts
19/01:30am - - - - - ENE 26 30 14 16 - - -
19/01:00am - - - - - ENE 24 30 13 16 - - -
19/12:30am - - - - - ENE 17 22 9 12 - - -
19/12:00am - - - - - ENE 19 20 10 11 - - -
 
Date/Time
EST
Temp
°C
App
Temp
°C
Dew
Point
°C
Rel
Hum
%
Delta-T
°C
Wind Press
QNH
hPa
Press
MSL
hPa
Rain since
9am
mm
Dir  Spd
km/h
Gust
km/h
Spd
kts
Gust
kts
18/11:30pm - - - - - E 19 22 10 12 - - -
18/11:00pm - - - - - ESE 17 19 9 10 - - -
18/10:30pm - - - - - E 11 15 6 8 - - -
18/10:00pm - - - - - E 15 17 8 9 - - -
18/09:30pm - - - - - E 15 19 8 10 - - -
18/09:00pm - - - - - E 15 19 8 10 - - -
18/08:30pm - - - - - ENE 17 20 9 11 - - -
18/08:00pm - - - - - ENE 17 24 9 13 - - -
18/07:30pm - - - - - ENE 19 24 10 13 - - -
18/07:00pm - - - - - ENE 17 20 9 11 - - -
18/06:30pm - - - - - ENE 19 22 10 12 - - -
18/06:00pm - - - - - ENE 17 20 9 11 - - -
18/05:30pm - - - - - ENE 15 19 8 10 - - -
18/05:00pm - - - - - ENE 17 22 9 12 - - -
18/04:30pm - - - - - ENE 13 17 7 9 - - -
18/04:00pm - - - - - ESE 13 17 7 9 - - -
18/03:30pm - - - - - ESE 11 15 6 8 - - -
18/03:00pm - - - - - ESE 13 17 7 9 - - -
18/02:30pm - - - - - E 13 17 7 9 - - -
18/02:00pm - - - - - E 11 15 6 8 - - -
18/01:30pm - - - - - ESE 9 13 5 7 - - -
18/01:00pm - - - - - ESE 9 13 5 7 - - -
18/12:30pm - - - - - E 11 15 6 8 - - -
18/12:00pm - - - - - ESE 15 17 8 9 - - -
18/11:30am - - - - - E 13 17 7 9 - - -
18/11:00am - - - - - ESE 11 13 6 7 - - -
18/10:30am - - - - - E 13 13 7 7 - - -
18/10:00am - - - - - E 15 17 8 9 - - -
18/09:30am - - - - - E 19 22 10 12 - - -
18/09:00am - - - - - E 30 33 16 18 - - -
18/08:30am - - - - - ESE 48 57 26 31 - - -
18/08:23am - - - - - SE 32 56 17 30 - - -
18/08:00am - - - - - SE 24 32 13 17 - - -
18/07:30am - - - - - SE 26 35 14 19 - - -
18/07:02am - - - - - S 30 50 16 27 - - -
18/07:00am - - - - - S 28 41 15 22 - - -
18/06:30am - - - - - S 17 22 9 12 - - -
18/06:00am - - - - - ESE 17 22 9 12 - - -
18/05:30am - - - - - ESE 17 22 9 12 - - -
18/05:00am - - - - - ESE 20 28 11 15 - - -
18/04:30am - - - - - ESE 19 24 10 13 - - -
18/04:00am - - - - - ESE 15 20 8 11 - - -
18/03:30am - - - - - ESE 17 22 9 12 - - -
18/03:00am - - - - - ESE 20 26 11 14 - - -
18/02:30am - - - - - ENE 15 17 8 9 - - -
18/02:05am - - - - - ENE 30 48 16 26 - - -
18/02:00am - - - - - E 33 48 18 26 - - -
18/01:56am - - - - - E 26 48 14 26 - - -
18/01:30am - - - - - ESE 20 26 11 14 - - -
18/01:00am - - - - - E 20 30 11 16 - - -
18/12:30am - - - - - ESE 22 28 12 15 - - -
18/12:00am - - - - - E 20 30 11 16 - - -
 
Date/Time
EST
Temp
°C
App
Temp
°C
Dew
Point
°C
Rel
Hum
%
Delta-T
°C
Wind Press
QNH
hPa
Press
MSL
hPa
Rain since
9am
mm
Dir  Spd
km/h
Gust
km/h
Spd
kts
Gust
kts
17/11:30pm - - - - - ENE 19 24 10 13 - - -
17/11:00pm - - - - - ENE 20 26 11 14 - - -
17/10:30pm - - - - - E 22 30 12 16 - - -
17/10:00pm - - - - - E 20 26 11 14 - - -
17/09:30pm - - - - - E 19 22 10 12 - - -
17/09:00pm - - - - - ENE 19 26 10 14 - - -
17/08:30pm - - - - - E 19 22 10 12 - - -
17/08:00pm - - - - - E 17 20 9 11 - - -
17/07:30pm - - - - - ESE 17 20 9 11 - - -
17/07:00pm - - - - - ESE 19 22 10 12 - - -
17/06:30pm - - - - - E 19 20 10 11 - - -
17/06:00pm - - - - - E 17 24 9 13 - - -
17/05:30pm - - - - - E 17 20 9 11 - - -
17/05:00pm - - - - - E 17 20 9 11 - - -
17/04:30pm - - - - - ESE 17 20 9 11 - - -
17/04:00pm - - - - - E 17 22 9 12 - - -
17/03:30pm - - - - - E 17 20 9 11 - - -
17/03:00pm - - - - - ENE 17 20 9 11 - - -
17/02:30pm - - - - - ENE 19 24 10 13 - - -
17/02:00pm - - - - - ENE 17 20 9 11 - - -
17/01:30pm - - - - - ENE 19 22 10 12 - - -
17/01:00pm - - - - - ENE 19 24 10 13 - - -
17/12:30pm - - - - - ENE 20 24 11 13 - - -
17/12:00pm - - - - - E 20 24 11 13 - - -
17/11:30am - - - - - ENE 22 26 12 14 - - -
17/11:00am - - - - - ENE 24 28 13 15 - - -
17/10:30am - - - - - E 22 26 12 14 - - -
17/10:00am - - - - - E 22 26 12 14 - - -
17/09:30am - - - - - E 26 33 14 18 - - -
17/09:00am - - - - - E 20 26 11 14 - - -
17/08:30am - - - - - E 20 24 11 13 - - -
17/08:00am - - - - - E 20 26 11 14 - - -
17/07:30am - - - - - E 22 26 12 14 - - -
17/07:00am - - - - - E 22 28 12 15 - - -
17/06:30am - - - - - E 26 30 14 16 - - -
17/06:00am - - - - - E 22 26 12 14 - - -
17/05:30am - - - - - E 20 24 11 13 - - -
17/05:00am - - - - - E 20 26 11 14 - - -
17/04:30am - - - - - E 24 28 13 15 - - -
17/04:00am - - - - - E 26 30 14 16 - - -
17/03:30am - - - - - E 22 30 12 16 - - -
17/03:00am - - - - - ENE 26 30 14 16 - - -
17/02:30am - - - - - E 24 28 13 15 - - -
17/02:00am - - - - - ENE 24 28 13 15 - - -
17/01:30am - - - - - ENE 26 30 14 16 - - -
17/01:00am - - - - - E 24 30 13 16 - - -
17/12:30am - - - - - ENE 20 28 11 15 - - -
17/12:00am - - - - - E 13 19 7 10 - - -
 
Date/Time
EST
Temp
°C
App
Temp
°C
Dew
Point
°C
Rel
Hum
%
Delta-T
°C
Wind Press
QNH
hPa
Press
MSL
hPa
Rain since
9am
mm
Dir  Spd
km/h
Gust
km/h
Spd
kts
Gust
kts
16/11:30pm - - - - - E 30 35 16 19 - - -
16/11:00pm - - - - - E 24 28 13 15 - - -
16/10:30pm - - - - - E 24 30 13 16 - - -
16/10:00pm - - - - - E 26 32 14 17 - - -
16/09:30pm - - - - - E 26 30 14 16 - - -
16/09:00pm - - - - - E 26 30 14 16 - - -
16/08:30pm - - - - - E 24 28 13 15 - - -
16/08:00pm - - - - - E 26 30 14 16 - - -
16/07:30pm - - - - - E 26 32 14 17 - - -
16/07:00pm - - - - - E 24 28 13 15 - - -
16/06:30pm - - - - - ESE 24 28 13 15 - - -
16/06:00pm - - - - - ESE 24 28 13 15 - - -
16/05:30pm - - - - - ESE 20 24 11 13 - - -
16/05:00pm - - - - - E 20 26 11 14 - - -
16/04:30pm - - - - - E 19 24 10 13 - - -
16/04:00pm - - - - - E 17 22 9 12 - - -
16/03:30pm - - - - - SE 15 20 8 11 - - -
16/03:00pm - - - - - ESE 13 17 7 9 - - -
16/02:30pm - - - - - SE 13 17 7 9 - - -
16/02:00pm - - - - - ENE 13 17 7 9 - - -
16/01:30pm - - - - - ENE 15 17 8 9 - - -
16/01:00pm - - - - - E 15 19 8 10 - - -
16/12:30pm - - - - - E 19 24 10 13 - - -
16/12:00pm - - - - - E 15 17 8 9 - - -
16/11:30am - - - - - ENE 13 15 7 8 - - -
16/11:00am - - - - - ENE 13 15 7 8 - - -
16/10:30am - - - - - ENE 11 15 6 8 - - -
16/10:00am - - - - - ENE 11 15 6 8 - - -
16/09:30am - - - - - ENE 13 15 7 8 - - -
16/09:00am - - - - - NE 11 15 6 8 - - -
16/08:30am - - - - - SE 6 11 3 6 - - -
16/08:00am - - - - - S 9 11 5 6 - - -
16/07:30am - - - - - SSE 9 13 5 7 - - -
16/07:00am - - - - - SSE 13 19 7 10 - - -
16/06:30am - - - - - SSW 9 13 5 7 - - -
16/06:00am - - - - - S 7 11 4 6 - - -
16/05:30am - - - - - ESE 13 17 7 9 - - -
16/05:00am - - - - - SSW 9 11 5 6 - - -
16/04:30am - - - - - SW 9 11 5 6 - - -
16/04:00am - - - - - SSW 9 11 5 6 - - -
16/03:30am - - - - - E 13 15 7 8 - - -
16/03:00am - - - - - E 13 17 7 9 - - -
16/02:30am - - - - - S 4 9 2 5 - - -
16/02:00am - - - - - S 6 9 3 5 - - -

Other formats

Comma delimited format used in spreadsheet applications
http://www.bom.gov.au/fwo/IDQ60801/IDQ60801.99367.axf

JavaScript Object Notation format (JSON) in row-major order
http://www.bom.gov.au/fwo/IDQ60801/IDQ60801.99367.json

Data quality

Most of these data are generated automatically and are frequently updated. Quality checks on data are not normally performed. It is possible for incorrect values to appear. Refer to information at About Latest Weather Observations and please check the disclaimer before using these data.